Time;durP1;ratioP1;P1;durP2;ratioP2;P2;SDS_P1;SDS_P2;PMS_P1;PMS_P2;Temp;Humidity;BMP_temperature;BMP_pressure;BME280_temperature;BME280_humidity;BME280_pressure;Samples;Min_cycle;Max_cycle;Signal;HPM_P1;HPM_P2
2021/10/19 00:01:53;;;;;;;13.38;8.73;;;13.70;90.90;;;;;;5017792;28;20022;-75
2021/10/19 00:04:19;;;;;;;10.38;8.65;;;13.80;90.90;;;;;;5041930;28;20028;-75
2021/10/19 00:06:44;;;;;;;14.15;9.20;;;13.80;90.90;;;;;;5024592;28;20029;-75
2021/10/19 00:09:10;;;;;;;13.52;9.02;;;13.80;90.90;;;;;;5022581;28;20082;-75
2021/10/19 00:11:36;;;;;;;11.35;8.65;;;13.80;91.00;;;;;;5043978;28;20468;-75
2021/10/19 00:14:01;;;;;;;13.63;9.35;;;13.80;91.00;;;;;;5042008;28;20528;-75
2021/10/19 00:16:27;;;;;;;12.48;9.55;;;13.80;91.00;;;;;;5025970;28;20118;-75
2021/10/19 00:18:53;;;;;;;17.27;9.38;;;13.80;91.00;;;;;;5026083;28;20041;-75
2021/10/19 00:21:18;;;;;;;12.23;8.57;;;13.80;91.00;;;;;;5023536;28;20021;-75
2021/10/19 00:23:44;;;;;;;11.05;8.98;;;13.80;91.00;;;;;;5026778;28;20882;-75
2021/10/19 00:26:09;;;;;;;13.18;8.65;;;13.80;91.00;;;;;;5041260;28;20029;-75
2021/10/19 00:28:36;;;;;;;13.48;9.60;;;13.90;91.00;;;;;;5028065;28;20370;-75
2021/10/19 00:31:02;;;;;;;11.73;9.40;;;13.90;91.10;;;;;;5041474;28;20490;-75
2021/10/19 00:33:27;;;;;;;14.30;9.55;;;13.90;91.20;;;;;;5041700;28;20194;-75
2021/10/19 00:35:53;;;;;;;17.80;9.77;;;13.80;91.60;;;;;;5044918;28;20062;-75
2021/10/19 00:38:19;;;;;;;12.43;9.15;;;13.80;91.40;;;;;;5045286;28;20078;-75
2021/10/19 00:40:44;;;;;;;13.02;9.43;;;13.80;91.50;;;;;;5045785;27;20169;-75
2021/10/19 00:43:10;;;;;;;14.63;9.60;;;13.80;91.60;;;;;;5028078;28;20104;-75
2021/10/19 00:45:36;;;;;;;13.43;9.63;;;13.80;91.70;;;;;;5027431;28;20034;-75
2021/10/19 00:48:05;;;;;;;10.63;8.73;;;13.80;91.70;;;;;;5029023;28;20025;-75
2021/10/19 00:50:30;;;;;;;14.15;10.57;;;13.80;91.80;;;;;;5028505;28;20056;-75
2021/10/19 00:52:57;;;;;;;13.73;9.43;;;13.80;91.80;;;;;;5008920;28;20490;-75
2021/10/19 00:55:23;;;;;;;15.75;10.32;;;13.80;91.90;;;;;;5028512;28;20055;-75
2021/10/19 00:57:50;;;;;;;13.45;10.57;;;13.80;92.10;;;;;;5030257;28;20033;-75
2021/10/19 01:00:17;;;;;;;15.23;10.20;;;13.80;92.10;;;;;;5047002;28;20078;-75
2021/10/19 01:02:43;;;;;;;13.07;9.93;;;13.80;92.20;;;;;;5045265;28;20650;-75
2021/10/19 01:05:10;;;;;;;13.85;9.43;;;13.80;92.20;;;;;;5047661;27;20031;-75
2021/10/19 01:07:36;;;;;;;14.68;10.25;;;13.80;92.30;;;;;;5012075;28;20078;-75
2021/10/19 01:10:04;;;;;;;14.20;11.38;;;13.80;92.40;;;;;;5011394;28;20028;-75
2021/10/19 01:12:30;;;;;;;12.50;9.68;;;13.80;92.50;;;;;;5045737;28;20490;-75
2021/10/19 01:14:55;;;;;;;13.85;10.38;;;13.80;92.60;;;;;;5008888;28;20043;-75
2021/10/19 01:17:22;;;;;;;16.33;9.77;;;13.80;92.60;;;;;;5047531;28;20032;-75
2021/10/19 01:19:51;;;;;;;15.77;10.57;;;13.80;92.70;;;;;;5034275;27;20044;-75
2021/10/19 01:22:17;;;;;;;14.45;9.85;;;13.80;92.80;;;;;;5047149;27;20029;-75
2021/10/19 01:24:46;;;;;;;16.05;10.85;;;13.80;92.80;;;;;;5027299;28;20030;-75
2021/10/19 01:27:12;;;;;;;15.55;10.93;;;13.80;92.90;;;;;;5012096;28;20556;-75
2021/10/19 01:29:38;;;;;;;15.77;10.45;;;13.70;93.00;;;;;;5027836;28;20056;-75
2021/10/19 01:32:05;;;;;;;13.90;11.02;;;13.80;93.10;;;;;;5042458;28;20033;-75
2021/10/19 01:34:35;;;;;;;13.50;10.77;;;13.70;93.30;;;;;;5027684;28;20044;-75
2021/10/19 01:37:02;;;;;;;17.20;11.90;;;13.70;93.40;;;;;;5041065;28;20089;-75
2021/10/19 01:39:28;;;;;;;12.90;10.80;;;13.70;93.50;;;;;;5043906;28;20960;-75
2021/10/19 01:41:53;;;;;;;16.25;11.05;;;13.70;93.60;;;;;;5046119;28;20069;-75
2021/10/19 01:44:19;;;;;;;15.93;11.07;;;13.80;93.70;;;;;;5026723;28;20033;-75
2021/10/19 01:46:45;;;;;;;17.85;12.43;;;13.70;93.70;;;;;;5029207;28;20048;-75
2021/10/19 01:49:10;;;;;;;15.93;11.45;;;13.80;93.80;;;;;;5026554;28;20093;-75
2021/10/19 01:51:36;;;;;;;14.30;10.30;;;13.70;93.90;;;;;;5014085;28;20046;-75
2021/10/19 01:54:01;;;;;;;15.35;10.63;;;13.80;94.00;;;;;;5045505;28;20100;-75
2021/10/19 01:56:27;;;;;;;18.60;11.40;;;13.80;94.00;;;;;;5027076;28;20496;-75
2021/10/19 01:58:53;;;;;;;17.77;11.88;;;13.80;94.10;;;;;;5044481;28;20031;-75
2021/10/19 02:01:18;;;;;;;15.40;10.60;;;13.80;94.10;;;;;;5029191;28;20077;-75
2021/10/19 02:03:44;;;;;;;16.65;12.00;;;13.70;94.10;;;;;;5045549;28;20115;-75
2021/10/19 02:06:09;;;;;;;18.65;13.23;;;13.70;94.20;;;;;;5032609;28;20379;-75
2021/10/19 02:08:35;;;;;;;12.85;10.30;;;13.80;94.20;;;;;;5058295;27;20047;-75
2021/10/19 02:11:01;;;;;;;14.70;12.02;;;13.80;94.20;;;;;;5046604;28;20029;-75
2021/10/19 02:13:27;;;;;;;19.45;12.45;;;13.80;94.30;;;;;;5041823;28;20738;-75
2021/10/19 02:15:53;;;;;;;15.73;11.63;;;13.80;94.30;;;;;;5044157;28;20126;-75
2021/10/19 02:18:19;;;;;;;17.95;11.73;;;13.80;94.40;;;;;;5045754;28;20025;-75
2021/10/19 02:20:45;;;;;;;18.15;11.60;;;13.80;94.40;;;;;;5046153;28;20441;-75
2021/10/19 02:23:11;;;;;;;18.17;12.40;;;13.80;94.40;;;;;;5024980;28;20037;-75
2021/10/19 02:25:37;;;;;;;19.63;13.00;;;13.90;94.50;;;;;;5027551;28;20029;-75
2021/10/19 02:28:03;;;;;;;17.25;12.43;;;13.90;94.50;;;;;;5010593;28;20538;-75
2021/10/19 02:30:28;;;;;;;17.17;11.77;;;13.90;94.50;;;;;;5046843;28;20029;-75
2021/10/19 02:32:56;;;;;;;19.25;13.40;;;13.90;94.50;;;;;;5045059;28;20478;-75
2021/10/19 02:35:22;;;;;;;18.35;12.65;;;13.90;94.60;;;;;;5025545;28;20112;-75
2021/10/19 02:37:50;;;;;;;15.55;11.95;;;14.00;94.70;;;;;;5041914;28;20521;-75
2021/10/19 02:40:16;;;;;;;16.38;12.02;;;14.00;94.80;;;;;;5045616;28;20128;-75
2021/10/19 02:42:43;;;;;;;16.85;12.27;;;13.90;94.80;;;;;;5042410;28;20398;-75
2021/10/19 02:45:09;;;;;;;18.00;11.73;;;13.90;94.80;;;;;;5043911;28;20097;-75
2021/10/19 02:47:35;;;;;;;15.32;11.40;;;13.90;94.80;;;;;;5045683;28;20077;-75
2021/10/19 02:50:01;;;;;;;18.67;11.30;;;13.90;94.80;;;;;;5028635;28;20435;-75
2021/10/19 02:52:26;;;;;;;20.70;12.02;;;13.90;94.90;;;;;;5046477;28;20041;-75
2021/10/19 02:54:52;;;;;;;18.25;11.13;;;14.00;95.00;;;;;;5012256;28;20037;-75
2021/10/19 02:57:19;;;;;;;16.20;12.10;;;14.00;95.00;;;;;;5041253;27;20065;-75
2021/10/19 02:59:44;;;;;;;18.83;12.05;;;14.00;95.00;;;;;;5041691;28;20124;-75
2021/10/19 03:02:10;;;;;;;15.57;11.50;;;14.00;95.00;;;;;;5025143;28;20486;-75
2021/10/19 03:04:36;;;;;;;16.58;11.43;;;14.00;95.00;;;;;;5028431;28;20029;-75
2021/10/19 03:07:02;;;;;;;18.63;12.70;;;14.00;95.00;;;;;;5025551;28;20401;-75
2021/10/19 03:09:28;;;;;;;18.45;12.05;;;14.00;95.10;;;;;;5027357;28;20036;-75
2021/10/19 03:11:53;;;;;;;16.05;12.10;;;14.00;95.20;;;;;;5051366;27;20561;-75
2021/10/19 03:14:19;;;;;;;20.10;12.55;;;14.00;95.20;;;;;;5009897;28;20037;-75
2021/10/19 03:16:44;;;;;;;17.40;12.30;;;14.00;95.20;;;;;;5042064;28;20036;-75
2021/10/19 03:19:10;;;;;;;18.48;11.80;;;14.00;95.30;;;;;;5046012;28;20497;-75
2021/10/19 03:21:36;;;;;;;17.48;12.15;;;14.00;95.30;;;;;;5039101;28;20017;-75
2021/10/19 03:24:01;;;;;;;15.88;11.10;;;14.00;95.30;;;;;;5040785;28;20518;-75
2021/10/19 03:26:27;;;;;;;16.50;11.98;;;14.10;95.30;;;;;;5023255;28;20033;-75
2021/10/19 03:28:52;;;;;;;20.55;13.13;;;14.00;95.40;;;;;;5009149;28;20511;-75
2021/10/19 03:31:18;;;;;;;15.88;11.38;;;14.00;95.40;;;;;;5025354;28;20040;-75
2021/10/19 03:33:44;;;;;;;17.35;11.95;;;14.00;95.50;;;;;;5026314;28;20377;-75
2021/10/19 03:36:09;;;;;;;13.90;11.18;;;14.00;95.80;;;;;;5004503;28;20033;-75
2021/10/19 03:38:36;;;;;;;14.98;10.95;;;14.00;95.50;;;;;;5026535;28;20485;-75
2021/10/19 03:41:02;;;;;;;19.85;11.80;;;14.00;95.60;;;;;;5044544;28;20029;-75
2021/10/19 03:43:28;;;;;;;18.08;11.45;;;14.00;95.60;;;;;;5040628;28;20033;-75
2021/10/19 03:45:54;;;;;;;15.70;12.05;;;14.10;95.60;;;;;;5024082;28;20037;-75
2021/10/19 03:48:19;;;;;;;15.02;10.77;;;14.10;95.60;;;;;;5043609;28;20033;-75
2021/10/19 03:50:45;;;;;;;16.75;12.25;;;14.10;95.70;;;;;;5023543;28;20577;-75
2021/10/19 03:53:12;;;;;;;17.63;12.45;;;14.10;95.60;;;;;;5023830;28;20040;-75
2021/10/19 03:55:38;;;;;;;19.35;12.52;;;14.10;95.70;;;;;;5044266;28;20025;-75
2021/10/19 03:58:03;;;;;;;16.13;12.43;;;14.10;95.70;;;;;;5023231;28;20169;-75
2021/10/19 04:00:29;;;;;;;14.98;11.85;;;14.10;95.80;;;;;;5065399;28;20067;-75
2021/10/19 04:02:54;;;;;;;19.77;13.60;;;14.10;95.90;;;;;;5033020;28;20030;-74
2021/10/19 04:05:20;;;;;;;22.33;13.10;;;14.10;95.90;;;;;;5050141;27;20146;-75
2021/10/19 04:07:46;;;;;;;17.25;12.25;;;14.10;95.90;;;;;;5045236;28;20406;-75
2021/10/19 04:10:13;;;;;;;15.00;11.65;;;14.10;95.90;;;;;;5037125;28;20033;-75
2021/10/19 04:12:39;;;;;;;19.02;13.77;;;14.10;96.00;;;;;;5042864;28;20056;-75
2021/10/19 04:15:05;;;;;;;17.23;13.50;;;14.10;96.00;;;;;;5011873;28;20493;-74
2021/10/19 04:17:31;;;;;;;21.67;14.95;;;14.10;96.10;;;;;;5030557;28;20056;-75
2021/10/19 04:19:57;;;;;;;18.90;13.55;;;14.10;96.20;;;;;;5029096;28;20056;-75
2021/10/19 04:22:22;;;;;;;17.02;12.65;;;14.20;96.20;;;;;;5060209;27;20719;-75
2021/10/19 04:24:51;;;;;;;20.17;14.82;;;14.20;96.30;;;;;;5044477;28;20546;-75
2021/10/19 04:27:17;;;;;;;19.02;11.95;;;14.10;96.20;;;;;;5046881;28;20085;-75
2021/10/19 04:29:43;;;;;;;20.67;14.10;;;14.20;96.30;;;;;;5046395;28;20600;-75
2021/10/19 04:32:09;;;;;;;22.30;14.50;;;14.20;96.30;;;;;;5045241;28;20033;-75
2021/10/19 04:34:34;;;;;;;18.90;14.57;;;14.20;96.30;;;;;;5046260;28;20033;-75
2021/10/19 04:37:00;;;;;;;23.15;15.02;;;14.20;96.30;;;;;;5011176;28;20036;-75
2021/10/19 04:39:25;;;;;;;17.45;13.57;;;14.20;96.40;;;;;;5047574;28;20041;-75
2021/10/19 04:41:51;;;;;;;19.35;13.07;;;14.20;96.40;;;;;;5049138;28;20033;-75
2021/10/19 04:44:17;;;;;;;17.65;13.73;;;14.20;96.40;;;;;;5027868;28;20165;-75
2021/10/19 04:46:43;;;;;;;19.85;14.98;;;14.20;96.50;;;;;;5045681;28;20085;-75
2021/10/19 04:49:09;;;;;;;21.23;14.10;;;14.20;96.50;;;;;;5045135;27;20150;-75
2021/10/19 04:51:35;;;;;;;19.63;14.02;;;14.20;96.50;;;;;;5052261;28;20857;-75
2021/10/19 04:54:01;;;;;;;19.67;13.55;;;14.20;96.80;;;;;;5046363;28;20029;-75
2021/10/19 04:56:26;;;;;;;21.23;13.43;;;14.20;96.50;;;;;;5023437;28;20037;-75
2021/10/19 04:58:52;;;;;;;20.52;12.73;;;14.20;96.80;;;;;;5047659;28;20048;-75
2021/10/19 05:01:17;;;;;;;15.30;11.48;;;14.30;96.60;;;;;;5040387;28;20029;-75
2021/10/19 05:03:46;;;;;;;19.70;12.70;;;14.30;96.60;;;;;;5044801;28;20041;-75
2021/10/19 05:06:13;;;;;;;17.98;12.55;;;14.30;96.60;;;;;;5021949;28;20029;-75
2021/10/19 05:08:39;;;;;;;15.70;11.80;;;14.30;96.60;;;;;;5038941;28;20108;-75
2021/10/19 05:11:04;;;;;;;19.67;11.52;;;14.30;96.60;;;;;;5005253;28;20159;-75
2021/10/19 05:13:30;;;;;;;17.65;11.50;;;14.30;96.60;;;;;;5039911;28;20040;-75
2021/10/19 05:15:55;;;;;;;14.90;10.93;;;14.30;96.60;;;;;;5019900;28;20040;-74
2021/10/19 05:18:21;;;;;;;16.73;12.20;;;14.30;96.60;;;;;;5033106;28;20059;-75
2021/10/19 05:20:47;;;;;;;19.73;11.23;;;14.40;96.70;;;;;;5036333;28;20033;-75
2021/10/19 05:23:12;;;;;;;18.58;11.00;;;14.40;96.70;;;;;;5012933;28;20053;-75
2021/10/19 05:25:38;;;;;;;18.35;11.90;;;14.40;96.70;;;;;;5012946;28;20120;-75
2021/10/19 05:28:04;;;;;;;17.75;11.73;;;14.40;96.70;;;;;;5011679;28;20025;-75
2021/10/19 05:30:29;;;;;;;15.15;11.43;;;14.40;96.80;;;;;;5032612;28;20053;-75
2021/10/19 05:32:55;;;;;;;14.10;10.70;;;14.40;96.80;;;;;;5030908;28;20487;-75
2021/10/19 05:35:21;;;;;;;15.85;10.52;;;14.40;96.80;;;;;;5025279;28;20047;-75
2021/10/19 05:37:46;;;;;;;17.33;11.90;;;14.40;96.80;;;;;;5042600;28;20389;-75
2021/10/19 05:40:12;;;;;;;16.38;10.68;;;14.40;96.80;;;;;;5022626;28;20054;-75
2021/10/19 05:42:38;;;;;;;16.77;11.68;;;14.40;96.80;;;;;;5017212;28;20739;-75
2021/10/19 05:45:05;;;;;;;17.15;12.25;;;14.40;96.80;;;;;;5048570;27;20446;-75
2021/10/19 05:47:31;;;;;;;16.33;10.90;;;14.40;96.80;;;;;;5055789;27;20029;-75
2021/10/19 05:49:56;;;;;;;13.85;10.15;;;14.40;96.90;;;;;;5031170;28;20111;-75
2021/10/19 05:52:22;;;;;;;15.82;11.23;;;14.50;96.90;;;;;;5007267;28;20081;-75
2021/10/19 05:54:47;;;;;;;13.55;9.90;;;14.50;96.90;;;;;;5009354;28;20040;-75
2021/10/19 05:57:13;;;;;;;14.25;10.30;;;14.50;96.90;;;;;;5041229;28;20034;-75
2021/10/19 05:59:39;;;;;;;14.20;10.18;;;14.50;96.90;;;;;;5040980;28;20056;-75
2021/10/19 06:02:05;;;;;;;14.27;10.32;;;14.50;97.00;;;;;;5044664;28;20100;-75
2021/10/19 06:04:31;;;;;;;14.48;11.25;;;14.50;97.00;;;;;;5044349;28;20037;-75
2021/10/19 06:06:59;;;;;;;20.85;11.65;;;14.50;97.00;;;;;;5028789;28;20037;-75
2021/10/19 06:09:25;;;;;;;14.60;10.57;;;14.50;97.00;;;;;;5028791;28;20056;-75
2021/10/19 06:11:53;;;;;;;18.38;10.80;;;14.50;97.00;;;;;;5011188;28;20102;-75
2021/10/19 06:14:19;;;;;;;12.90;9.73;;;14.50;97.00;;;;;;5028675;28;20486;-75
2021/10/19 06:16:45;;;;;;;15.05;10.77;;;14.50;97.00;;;;;;5028565;28;20040;-75
2021/10/19 06:19:12;;;;;;;17.17;11.82;;;14.60;97.30;;;;;;5030668;27;20136;-75
2021/10/19 06:21:38;;;;;;;17.90;12.60;;;14.60;97.10;;;;;;5028274;28;20057;-75
2021/10/19 06:24:04;;;;;;;17.02;11.60;;;14.60;97.10;;;;;;5010896;28;20398;-75
2021/10/19 06:26:35;;;;;;;16.85;12.57;;;14.60;97.10;;;;;;5028620;28;20045;-75
2021/10/19 06:29:01;;;;;;;16.58;12.55;;;14.60;97.10;;;;;;5010697;28;20375;-75
2021/10/19 06:31:27;;;;;;;13.95;11.65;;;14.60;97.10;;;;;;5028128;28;20037;-75
2021/10/19 06:33:52;;;;;;;17.83;11.90;;;14.60;97.20;;;;;;5027215;28;20041;-75
2021/10/19 06:36:18;;;;;;;14.50;9.93;;;14.60;97.10;;;;;;5011180;28;20073;-75
2021/10/19 06:38:43;;;;;;;16.50;11.52;;;14.70;97.20;;;;;;4993793;28;20061;-74
2021/10/19 06:41:09;;;;;;;15.73;10.73;;;14.70;97.20;;;;;;5028344;28;20082;-75
2021/10/19 06:43:35;;;;;;;15.82;10.30;;;14.70;97.20;;;;;;5027938;28;20030;-75
2021/10/19 06:46:00;;;;;;;19.92;12.60;;;14.70;97.20;;;;;;5013152;28;20077;-75
2021/10/19 06:48:26;;;;;;;16.98;11.55;;;14.70;97.20;;;;;;5043991;28;20521;-75
2021/10/19 06:50:51;;;;;;;17.77;11.35;;;14.70;97.20;;;;;;5036301;28;20025;-75
2021/10/19 06:53:19;;;;;;;15.65;11.55;;;14.80;97.20;;;;;;5013464;28;20761;-75
2021/10/19 06:55:44;;;;;;;18.00;11.63;;;14.80;97.20;;;;;;5063231;28;20486;-75
2021/10/19 06:58:10;;;;;;;18.83;13.73;;;14.80;97.20;;;;;;5036279;28;20059;-75
2021/10/19 07:00:36;;;;;;;12.95;9.90;;;14.70;97.30;;;;;;5010392;28;20155;-75
2021/10/19 07:03:01;;;;;;;14.15;11.10;;;14.80;97.30;;;;;;5010310;28;20038;-75
2021/10/19 07:05:27;;;;;;;13.88;9.98;;;14.80;97.30;;;;;;5010245;28;20027;-76
2021/10/19 07:07:52;;;;;;;15.48;9.05;;;14.80;97.30;;;;;;5028615;28;20410;-76
2021/10/19 07:10:20;;;;;;;10.32;8.50;;;14.80;97.30;;;;;;5028360;28;20082;-76
2021/10/19 07:12:46;;;;;;;15.88;11.52;;;14.80;97.30;;;;;;4994844;28;20418;-77
2021/10/19 07:15:12;;;;;;;13.30;10.40;;;14.90;97.30;;;;;;5010890;28;20120;-76
2021/10/19 07:17:38;;;;;;;14.10;10.40;;;14.90;97.30;;;;;;5028508;28;20108;-76
2021/10/19 07:20:09;;;;;;;25.17;14.82;;;14.90;97.30;;;;;;5028751;28;20045;-76
2021/10/19 07:22:36;;;;;;;21.35;12.70;;;14.90;97.30;;;;;;5027894;28;20022;-76
2021/10/19 07:25:03;;;;;;;14.45;10.55;;;15.00;97.30;;;;;;5028040;28;20505;-76
2021/10/19 07:27:30;;;;;;;17.88;10.20;;;15.00;97.20;;;;;;5011278;28;20102;-77
2021/10/19 07:29:56;;;;;;;14.50;9.75;;;15.00;97.20;;;;;;5028870;28;20033;-77
2021/10/19 07:32:22;;;;;;;15.02;9.65;;;15.00;97.10;;;;;;5010123;28;20030;-76
2021/10/19 07:34:48;;;;;;;18.08;13.52;;;15.10;97.10;;;;;;5009249;28;20038;-76
2021/10/19 07:37:15;;;;;;;16.45;12.23;;;15.10;97.10;;;;;;5045953;28;20041;-75
2021/10/19 07:39:41;;;;;;;18.75;12.25;;;15.10;97.20;;;;;;5101230;27;20057;-76
2021/10/19 07:42:06;;;;;;;16.35;12.05;;;15.10;97.20;;;;;;5089877;28;20107;-75
2021/10/19 07:44:32;;;;;;;18.70;12.25;;;15.10;97.20;;;;;;5089671;28;20118;-75
2021/10/19 07:46:58;;;;;;;24.85;14.23;;;15.10;97.20;;;;;;5088298;28;20055;-76
2021/10/19 07:49:24;;;;;;;18.17;13.10;;;15.10;97.30;;;;;;5090304;28;20039;-75
2021/10/19 07:51:50;;;;;;;16.15;11.70;;;15.10;97.30;;;;;;5090289;28;20028;-76
2021/10/19 07:54:16;;;;;;;20.75;13.27;;;15.10;97.30;;;;;;5089226;28;20032;-76
2021/10/19 07:56:42;;;;;;;15.77;11.40;;;15.10;97.40;;;;;;5089376;28;20111;-76
2021/10/19 07:59:08;;;;;;;13.82;11.05;;;15.10;97.70;;;;;;5088682;28;20456;-75
2021/10/19 08:01:35;;;;;;;18.38;12.40;;;15.20;97.40;;;;;;5090564;28;20028;-76
2021/10/19 08:04:02;;;;;;;12.48;9.23;;;15.20;97.40;;;;;;5090347;28;20029;-75
2021/10/19 08:06:27;;;;;;;12.40;9.18;;;15.20;97.50;;;;;;5088673;28;20036;-76
2021/10/19 08:08:53;;;;;;;18.45;12.68;;;15.20;97.50;;;;;;5090154;28;20290;-76
2021/10/19 08:11:19;;;;;;;15.77;11.68;;;15.20;97.70;;;;;;5094907;28;20023;-76
2021/10/19 08:13:45;;;;;;;17.38;11.57;;;15.30;97.50;;;;;;5109867;28;20697;-75
2021/10/19 08:16:10;;;;;;;13.50;9.80;;;15.30;97.50;;;;;;5090437;28;20028;-75
2021/10/19 08:18:36;;;;;;;16.40;9.63;;;15.30;97.50;;;;;;5092078;28;20047;-76
2021/10/19 08:21:02;;;;;;;15.98;10.57;;;15.30;97.80;;;;;;5089518;28;20039;-75
2021/10/19 08:23:27;;;;;;;20.90;10.68;;;15.30;97.50;;;;;;5087410;28;20485;-75
2021/10/19 08:25:54;;;;;;;13.38;8.52;;;15.40;97.50;;;;;;5088307;28;20363;-75
2021/10/19 08:28:24;;;;;;;14.35;9.15;;;15.40;97.50;;;;;;5085965;28;20032;-75
2021/10/19 08:30:52;;;;;;;10.38;8.95;;;15.40;97.50;;;;;;5088973;28;20127;-75
2021/10/19 08:33:17;;;;;;;11.90;9.23;;;15.50;97.60;;;;;;5089569;28;20028;-75
2021/10/19 08:35:44;;;;;;;13.10;9.18;;;15.50;97.60;;;;;;5088203;28;20066;-75
2021/10/19 08:38:13;;;;;;;13.13;8.82;;;15.50;97.80;;;;;;5089855;28;20035;-75
2021/10/19 08:40:43;;;;;;;9.05;8.15;;;15.50;97.60;;;;;;5008844;28;20052;-75
2021/10/19 08:43:10;;;;;;;9.18;7.93;;;15.50;97.60;;;;;;5005523;28;20423;-75
2021/10/19 08:45:36;;;;;;;14.27;9.55;;;15.60;97.60;;;;;;5005825;28;20034;-75
2021/10/19 08:48:02;;;;;;;9.70;7.70;;;15.60;97.60;;;;;;5022151;28;20501;-75
2021/10/19 08:50:29;;;;;;;14.85;8.50;;;15.60;97.60;;;;;;5005986;28;20034;-75
2021/10/19 08:52:55;;;;;;;10.27;7.63;;;15.60;97.60;;;;;;5005234;28;20038;-75
2021/10/19 08:55:21;;;;;;;12.63;7.97;;;15.70;97.60;;;;;;5006881;28;20099;-75
2021/10/19 08:57:47;;;;;;;9.77;7.57;;;15.70;97.60;;;;;;5008685;28;20562;-75
2021/10/19 09:00:13;;;;;;;8.77;7.03;;;15.70;97.60;;;;;;4992461;28;20042;-75
2021/10/19 09:02:48;;;;;;;9.18;6.22;;;15.70;97.60;;;;;;5010405;28;20037;-75
2021/10/19 09:05:18;;;;;;;9.32;7.05;;;15.70;97.60;;;;;;5008791;28;20120;-75
2021/10/19 09:08:02;;;;;;;7.57;6.65;;;15.70;97.60;;;;;;5008617;28;20030;-75
2021/10/19 09:10:33;;;;;;;9.80;7.25;;;15.80;97.70;;;;;;5010185;28;20378;-75
2021/10/19 09:13:02;;;;;;;10.02;7.28;;;15.70;97.70;;;;;;5041844;28;20056;-75
2021/10/19 09:15:30;;;;;;;8.30;6.32;;;15.80;97.70;;;;;;5008573;28;20022;-75
2021/10/19 09:18:01;;;;;;;10.82;6.35;;;15.80;97.70;;;;;;5008496;28;20111;-75
2021/10/19 09:20:27;;;;;;;9.35;7.45;;;15.80;97.70;;;;;;5008404;28;20038;-75
2021/10/19 09:23:01;;;;;;;13.82;7.82;;;15.80;97.70;;;;;;5010082;28;20056;-75
2021/10/19 09:25:38;;;;;;;7.00;5.80;;;15.80;97.80;;;;;;5009789;28;20372;-74
2021/10/19 09:28:07;;;;;;;6.55;5.70;;;15.80;97.80;;;;;;5008506;28;20830;-75
2021/10/19 09:30:46;;;;;;;8.25;5.82;;;15.80;97.80;;;;;;5009586;28;20038;-75
2021/10/19 09:33:17;;;;;;;7.45;6.75;;;15.80;97.80;;;;;;5008195;28;20040;-75
2021/10/19 09:35:44;;;;;;;6.47;5.38;;;15.80;97.80;;;;;;5007951;28;20107;-75
2021/10/19 09:38:12;;;;;;;10.15;5.72;;;15.80;97.80;;;;;;4992094;28;20034;-75
2021/10/19 09:40:49;;;;;;;6.25;5.63;;;15.90;97.90;;;;;;5027687;28;20054;-75
2021/10/19 09:43:35;;;;;;;6.25;5.30;;;15.90;97.90;;;;;;5029164;28;20026;-75
2021/10/19 09:46:02;;;;;;;7.72;4.53;;;16.00;97.90;;;;;;5029055;28;20072;-75
2021/10/19 09:48:31;;;;;;;8.50;5.50;;;16.00;97.80;;;;;;5029669;28;20025;-76
2021/10/19 09:50:59;;;;;;;6.97;5.65;;;16.10;97.80;;;;;;5029332;28;20026;-76
2021/10/19 09:53:26;;;;;;;10.93;6.55;;;16.10;97.80;;;;;;5045430;28;20065;-76
2021/10/19 09:55:54;;;;;;;9.52;6.50;;;16.10;97.80;;;;;;5081083;28;20033;-76
2021/10/19 09:58:20;;;;;;;7.23;5.87;;;16.20;97.80;;;;;;5114909;27;20078;-75
2021/10/19 10:00:46;;;;;;;12.10;6.28;;;16.20;97.80;;;;;;5029025;28;20073;-76
2021/10/19 10:03:13;;;;;;;8.60;7.10;;;16.20;97.80;;;;;;5028670;28;20056;-76
2021/10/19 10:05:40;;;;;;;13.75;7.32;;;16.20;97.80;;;;;;5028290;28;20030;-76
2021/10/19 10:08:10;;;;;;;13.48;8.13;;;16.20;97.90;;;;;;5026727;28;20056;-76
2021/10/19 10:10:36;;;;;;;14.68;7.82;;;16.20;97.90;;;;;;5046566;28;20112;-76
2021/10/19 10:13:02;;;;;;;17.02;8.43;;;16.30;97.90;;;;;;5069351;27;20118;-76
2021/10/19 10:15:33;;;;;;;12.90;8.20;;;16.30;97.90;;;;;;5133223;27;20057;-76
2021/10/19 10:18:04;;;;;;;13.55;8.98;;;16.30;98.00;;;;;;5133007;27;20373;-76
2021/10/19 10:20:40;;;;;;;14.93;9.20;;;16.40;97.90;;;;;;5133590;27;20019;-76
2021/10/19 10:23:16;;;;;;;19.52;9.20;;;16.40;97.90;;;;;;5114723;27;20046;-76
2021/10/19 10:25:43;;;;;;;17.58;10.02;;;16.40;98.00;;;;;;5062773;27;20026;-76
2021/10/19 10:28:11;;;;;;;21.15;10.80;;;16.40;98.00;;;;;;5011388;28;20039;-76
2021/10/19 10:30:38;;;;;;;17.38;9.55;;;16.50;98.00;;;;;;5064504;27;20060;-76
2021/10/19 10:33:07;;;;;;;15.30;9.90;;;16.50;98.10;;;;;;5133274;27;20031;-76
2021/10/19 10:35:34;;;;;;;20.80;11.65;;;16.60;98.10;;;;;;5030777;28;20102;-76
2021/10/19 10:38:03;;;;;;;18.65;11.50;;;16.60;98.10;;;;;;5086365;27;20032;-76
2021/10/19 10:40:31;;;;;;;;;;;16.70;98.00;;;;;;5132793;27;20058;-76
2021/10/19 10:43:00;;;;;;;23.40;13.40;;;16.80;97.90;;;;;;5063001;27;19909;-76
2021/10/19 10:45:30;;;;;;;20.05;12.68;;;16.80;97.90;;;;;;5027933;28;20026;-76
2021/10/19 10:48:06;;;;;;;20.17;10.93;;;16.80;97.90;;;;;;5010829;28;20508;-76
2021/10/19 10:50:34;;;;;;;26.58;11.90;;;16.90;97.90;;;;;;5026130;28;20034;-77
2021/10/19 10:53:04;;;;;;;17.63;11.33;;;16.90;97.80;;;;;;5011286;28;20033;-77
2021/10/19 10:55:37;;;;;;;16.27;10.88;;;16.90;97.80;;;;;;5028987;28;20470;-77
2021/10/19 10:58:03;;;;;;;19.10;11.98;;;16.90;97.80;;;;;;5028485;28;20082;-77
2021/10/19 11:00:28;;;;;;;19.20;11.32;;;16.90;97.80;;;;;;5028658;28;20021;-77
2021/10/19 11:03:12;;;;;;;16.13;10.68;;;17.00;97.80;;;;;;5028664;28;20028;-77
2021/10/19 11:06:09;;;;;;;16.55;10.75;;;17.00;97.80;;;;;;4994875;28;20025;-77
2021/10/19 11:08:36;;;;;;;26.05;11.40;;;17.10;97.80;;;;;;5025342;28;20035;-77
2021/10/19 11:11:02;;;;;;;15.98;11.60;;;17.00;97.70;;;;;;5056670;28;20071;-77
2021/10/19 11:13:30;;;;;;;18.20;12.38;;;17.00;97.70;;;;;;5029015;28;20386;-77
2021/10/19 11:15:56;;;;;;;15.95;11.30;;;17.00;97.80;;;;;;5052777;28;20053;-77
2021/10/19 11:18:25;;;;;;;18.08;12.43;;;17.10;97.80;;;;;;5029184;28;20382;-77
2021/10/19 11:20:57;;;;;;;17.17;12.48;;;17.10;97.80;;;;;;5043721;28;20034;-77
2021/10/19 11:23:23;;;;;;;17.70;12.82;;;17.10;97.80;;;;;;5029047;28;20029;-76
2021/10/19 11:25:49;;;;;;;23.20;12.32;;;17.20;97.80;;;;;;5028416;28;20509;-77
2021/10/19 11:28:15;;;;;;;17.60;11.93;;;17.20;97.80;;;;;;5029001;28;20038;-76
2021/10/19 11:30:40;;;;;;;21.33;13.48;;;17.30;97.80;;;;;;5028999;28;20041;-76
2021/10/19 11:33:07;;;;;;;21.98;13.02;;;17.30;97.70;;;;;;5028930;28;20030;-77
2021/10/19 11:35:33;;;;;;;16.90;11.75;;;17.30;97.70;;;;;;5011213;28;20037;-76
2021/10/19 11:37:59;;;;;;;24.50;13.73;;;17.30;97.70;;;;;;5028824;28;20128;-76
2021/10/19 11:40:25;;;;;;;20.63;13.60;;;17.30;97.70;;;;;;5015864;28;20052;-77
2021/10/19 11:42:53;;;;;;;20.23;13.00;;;17.30;97.70;;;;;;5007556;28;20048;-77
2021/10/19 11:45:22;;;;;;;21.83;14.52;;;17.30;97.70;;;;;;5008997;28;20030;-77
2021/10/19 11:47:51;;;;;;;;;;;17.40;97.70;;;;;;5009494;28;20033;-77
2021/10/19 11:50:26;;;;;;;22.70;14.80;;;17.30;97.70;;;;;;5009204;28;19913;-77
2021/10/19 11:52:52;;;;;;;26.23;15.63;;;17.40;98.00;;;;;;5009139;28;20030;-77
2021/10/19 11:55:19;;;;;;;20.20;15.15;;;17.40;97.80;;;;;;5009516;28;20030;-77
2021/10/19 11:57:50;;;;;;;22.02;13.65;;;17.40;97.80;;;;;;5009401;28;20033;-77
2021/10/19 12:00:16;;;;;;;21.98;14.55;;;17.40;97.80;;;;;;5009473;28;20030;-77
2021/10/19 12:02:59;;;;;;;27.42;16.00;;;17.40;97.80;;;;;;5009163;28;20034;-77
2021/10/19 12:05:26;;;;;;;25.77;16.15;;;17.40;97.80;;;;;;5009076;28;20495;-76
2021/10/19 12:07:54;;;;;;;21.45;14.73;;;17.40;97.80;;;;;;5013037;28;20034;-76
2021/10/19 12:10:22;;;;;;;33.40;18.25;;;17.50;97.90;;;;;;5026803;28;20119;-77
2021/10/19 12:12:52;;;;;;;29.27;17.08;;;17.50;97.90;;;;;;5011039;28;20034;-77
2021/10/19 12:15:26;;;;;;;26.40;15.25;;;17.50;97.90;;;;;;5007790;28;20026;-77
2021/10/19 12:17:54;;;;;;;28.25;16.02;;;17.50;97.90;;;;;;5039555;28;20102;-76
2021/10/19 12:20:20;;;;;;;27.45;17.00;;;17.50;97.90;;;;;;5006517;28;20502;-76
2021/10/19 12:22:45;;;;;;;27.05;17.20;;;17.50;97.90;;;;;;5007656;28;20046;-76
2021/10/19 12:25:11;;;;;;;27.33;15.65;;;17.50;97.90;;;;;;5023338;28;20129;-77
2021/10/19 12:27:37;;;;;;;27.77;16.55;;;17.60;97.90;;;;;;5007942;28;20127;-77
2021/10/19 12:30:09;;;;;;;24.42;15.60;;;17.60;97.90;;;;;;5008366;28;20034;-76